createdAt,value
2023-04-22T00:01:28.913Z,14.89
2023-04-22T00:03:56.003Z,14.87
2023-04-22T00:06:23.013Z,14.81
2023-04-22T00:08:50.219Z,14.79
2023-04-22T00:11:17.022Z,14.68
2023-04-22T00:13:44.509Z,14.66
2023-04-22T00:16:11.771Z,14.60
2023-04-22T00:18:38.660Z,14.62
2023-04-22T00:21:06.179Z,14.63
2023-04-22T00:23:33.117Z,14.60
2023-04-22T00:26:00.848Z,14.60
2023-04-22T00:28:27.863Z,14.55
2023-04-22T00:30:54.790Z,14.62
2023-04-22T00:33:21.623Z,14.57
2023-04-22T00:35:48.485Z,14.46
2023-04-22T00:38:15.494Z,14.39
2023-04-22T00:40:42.400Z,14.36
2023-04-22T00:43:09.686Z,14.34
2023-04-22T00:45:37.740Z,14.27
2023-04-22T00:48:05.253Z,14.17
2023-04-22T00:50:32.229Z,14.06
2023-04-22T00:52:59.058Z,13.88
2023-04-22T00:55:26.322Z,13.72
2023-04-22T00:57:55.442Z,13.68
2023-04-22T01:00:27.268Z,13.59
2023-04-22T01:02:55.995Z,13.53
2023-04-22T01:05:24.842Z,13.55
2023-04-22T01:07:51.726Z,13.44
2023-04-22T01:10:18.936Z,13.46
2023-04-22T01:12:45.829Z,13.36
2023-04-22T01:15:13.070Z,13.28
2023-04-22T01:17:40.032Z,13.31
2023-04-22T01:20:10.320Z,13.26
2023-04-22T01:22:42.801Z,13.10
2023-04-22T01:25:11.555Z,13.23
2023-04-22T01:27:39.434Z,13.23
2023-04-22T01:30:07.338Z,13.25
2023-04-22T01:32:34.378Z,13.29
2023-04-22T01:35:01.232Z,13.28
2023-04-22T01:37:29.068Z,13.32
2023-04-22T01:39:58.210Z,13.26
2023-04-22T01:42:25.598Z,13.24
2023-04-22T01:44:52.515Z,13.20
2023-04-22T01:47:19.451Z,13.22
2023-04-22T01:49:46.395Z,13.23
2023-04-22T01:52:13.573Z,13.29
2023-04-22T01:54:41.605Z,13.30
2023-04-22T01:57:14.141Z,13.31
2023-04-22T01:59:41.922Z,13.27
2023-04-22T02:02:09.152Z,13.34
2023-04-22T02:04:36.508Z,13.32
2023-04-22T02:07:03.390Z,13.37
2023-04-22T02:09:30.359Z,13.26
2023-04-22T02:11:57.189Z,13.33
2023-04-22T02:14:24.067Z,13.32
2023-04-22T02:16:51.713Z,13.22
2023-04-22T02:19:18.589Z,13.29
2023-04-22T02:21:45.467Z,13.28
2023-04-22T02:24:12.282Z,13.22
2023-04-22T02:26:39.157Z,13.18
2023-04-22T02:29:06.124Z,13.16
2023-04-22T02:31:33.016Z,13.08
2023-04-22T02:33:59.915Z,13.01
2023-04-22T02:36:27.731Z,12.93
2023-04-22T02:38:55.252Z,12.82
2023-04-22T02:41:22.144Z,12.84
2023-04-22T02:43:49.058Z,12.80
2023-04-22T02:46:16.568Z,12.76
2023-04-22T02:48:43.625Z,12.71
2023-04-22T02:51:11.310Z,12.61
2023-04-22T02:53:38.391Z,12.45
2023-04-22T02:56:05.756Z,12.38
2023-04-22T02:58:32.619Z,12.30
2023-04-22T03:00:59.541Z,12.26
2023-04-22T03:03:26.593Z,12.24
2023-04-22T03:05:53.590Z,12.28
2023-04-22T03:08:20.884Z,12.28
2023-04-22T03:10:47.961Z,12.28
2023-04-22T03:13:14.798Z,12.27
2023-04-22T03:15:42.004Z,12.25
2023-04-22T03:18:09.422Z,12.27
2023-04-22T03:20:36.706Z,12.22
2023-04-22T03:23:03.536Z,12.12
2023-04-22T03:25:30.456Z,12.04
2023-04-22T03:27:57.231Z,12.04
2023-04-22T03:30:24.175Z,12.05
2023-04-22T03:32:52.513Z,11.90
2023-04-22T03:35:20.636Z,11.86
2023-04-22T03:37:47.518Z,11.83
2023-04-22T03:40:14.469Z,11.76
2023-04-22T03:42:41.300Z,11.68
2023-04-22T03:45:08.326Z,11.66
2023-04-22T03:47:35.181Z,11.52
2023-04-22T03:50:02.129Z,11.45
2023-04-22T03:52:28.951Z,11.39
2023-04-22T03:54:55.766Z,11.34
2023-04-22T03:57:22.615Z,11.27
2023-04-22T03:59:49.396Z,11.21
2023-04-22T04:02:16.345Z,11.22
2023-04-22T04:04:43.611Z,11.19
2023-04-22T04:07:10.577Z,11.11
2023-04-22T04:09:37.721Z,11.06
2023-04-22T04:12:04.905Z,11.02
2023-04-22T04:14:31.708Z,11.04
2023-04-22T04:16:58.632Z,11.03
2023-04-22T04:19:25.514Z,11.03
2023-04-22T04:21:52.417Z,11.01
2023-04-22T04:24:19.378Z,11.02
2023-04-22T04:26:46.647Z,10.99
2023-04-22T04:29:13.705Z,11.02
2023-04-22T04:31:41.353Z,11.11
2023-04-22T04:34:08.221Z,11.15
2023-04-22T04:36:35.334Z,11.21
2023-04-22T04:39:02.148Z,11.24
2023-04-22T04:41:29.541Z,11.35
2023-04-22T04:43:56.576Z,11.42
2023-04-22T04:46:23.529Z,11.52
2023-04-22T04:48:51.704Z,11.62
2023-04-22T04:51:20.371Z,11.65
2023-04-22T04:53:47.461Z,11.70
2023-04-22T04:56:14.317Z,11.76
2023-04-22T04:58:41.098Z,11.87
2023-04-22T05:01:07.957Z,11.97
2023-04-22T05:03:34.845Z,11.96
2023-04-22T05:06:01.849Z,12.12
2023-04-22T05:08:28.718Z,12.22
2023-04-22T05:10:56.043Z,12.36
2023-04-22T05:13:22.878Z,12.66
2023-04-22T05:15:49.806Z,12.75
2023-04-22T05:18:16.640Z,12.87
2023-04-22T05:20:43.595Z,12.96
2023-04-22T05:23:10.420Z,13.08
2023-04-22T05:25:37.442Z,13.13
2023-04-22T05:28:04.302Z,13.18
2023-04-22T05:30:31.107Z,13.31
2023-04-22T05:32:58.093Z,13.47
2023-04-22T05:35:24.952Z,13.51
2023-04-22T05:37:51.766Z,13.65
2023-04-22T05:40:18.720Z,13.64
2023-04-22T05:42:45.541Z,13.90
2023-04-22T05:45:12.432Z,13.70
2023-04-22T05:47:39.365Z,13.99
2023-04-22T05:50:07.359Z,14.21
2023-04-22T05:52:34.253Z,14.46
2023-04-22T05:55:01.622Z,14.59
2023-04-22T05:57:28.434Z,14.74
2023-04-22T05:59:55.347Z,14.88
2023-04-22T06:02:22.298Z,15.01
2023-04-22T06:04:49.597Z,15.16
2023-04-22T06:07:17.010Z,15.54
2023-04-22T06:09:43.923Z,15.69
2023-04-22T06:12:11.371Z,16.01
2023-04-22T06:14:38.202Z,16.28
2023-04-22T06:17:05.078Z,16.47
2023-04-22T06:19:31.984Z,16.57
2023-04-22T06:21:58.832Z,16.65
2023-04-22T06:24:25.697Z,17.00
2023-04-22T06:26:52.528Z,16.97
2023-04-22T06:29:19.633Z,17.24
2023-04-22T06:31:46.479Z,17.57
2023-04-22T06:34:13.321Z,17.72
2023-04-22T06:36:40.265Z,17.96
2023-04-22T06:39:07.419Z,18.03
2023-04-22T06:41:34.561Z,17.87
2023-04-22T06:44:01.500Z,18.21
2023-04-22T06:46:28.418Z,18.40
2023-04-22T06:48:55.349Z,18.63
2023-04-22T06:51:22.211Z,19.02
2023-04-22T06:53:49.079Z,19.03
2023-04-22T06:56:15.989Z,18.99
2023-04-22T06:58:42.789Z,19.43
2023-04-22T07:01:09.708Z,19.13
2023-04-22T07:03:36.660Z,19.37
2023-04-22T07:06:04.354Z,19.56
2023-04-22T07:08:31.195Z,19.71
2023-04-22T07:10:58.162Z,19.71
2023-04-22T07:13:26.916Z,19.84
2023-04-22T07:15:53.793Z,19.76
2023-04-22T07:18:20.704Z,19.99
2023-04-22T07:20:47.507Z,20.07
2023-04-22T07:23:14.381Z,20.30
2023-04-22T07:25:41.223Z,20.13
2023-04-22T07:28:08.066Z,19.92
2023-04-22T07:30:34.862Z,20.14
2023-04-22T07:33:01.819Z,20.22
2023-04-22T07:35:29.779Z,19.96
2023-04-22T07:37:56.689Z,20.36
2023-04-22T07:40:23.481Z,20.17
2023-04-22T07:42:50.325Z,20.44
2023-04-22T07:45:17.291Z,20.53
2023-04-22T07:47:44.137Z,20.66
2023-04-22T07:50:11.531Z,20.94
2023-04-22T07:52:38.369Z,21.21
2023-04-22T07:55:06.340Z,20.84
2023-04-22T07:57:38.429Z,21.03
2023-04-22T08:00:08.093Z,21.67
2023-04-22T08:02:35.179Z,21.69
2023-04-22T08:05:02.189Z,22.12
2023-04-22T08:07:32.978Z,22.13
2023-04-22T08:10:00.635Z,22.25
2023-04-22T08:12:28.014Z,22.01
2023-04-22T08:14:54.878Z,22.46
2023-04-22T08:17:21.815Z,22.32
2023-04-22T08:19:49.153Z,22.16
2023-04-22T08:22:17.815Z,22.38
2023-04-22T08:24:44.930Z,22.49
2023-04-22T08:27:11.938Z,22.78
2023-04-22T08:29:38.991Z,23.01
2023-04-22T08:32:06.284Z,22.93
2023-04-22T08:34:33.298Z,22.49
2023-04-22T08:37:00.198Z,22.62
2023-04-22T08:39:27.030Z,22.78
2023-04-22T08:41:56.231Z,22.28
2023-04-22T08:44:23.217Z,22.46
2023-04-22T08:46:51.917Z,23.01
2023-04-22T08:49:19.683Z,23.28
2023-04-22T08:51:46.570Z,23.03
2023-04-22T08:54:13.428Z,22.80
2023-04-22T08:56:44.452Z,23.57
2023-04-22T08:59:12.794Z,23.97
2023-04-22T09:01:41.484Z,23.92
2023-04-22T09:04:10.859Z,24.24
2023-04-22T09:06:38.956Z,23.79
2023-04-22T09:09:06.078Z,23.99
2023-04-22T09:11:33.737Z,24.08
2023-04-22T09:14:00.784Z,24.03
2023-04-22T09:16:44.680Z,24.10
2023-04-22T09:19:13.141Z,24.28
2023-04-22T09:21:41.094Z,24.59
2023-04-22T09:24:10.809Z,24.45
2023-04-22T09:26:42.521Z,24.16
2023-04-22T09:29:15.406Z,24.66
2023-04-22T09:31:42.964Z,24.62
2023-04-22T09:34:09.809Z,24.57
2023-04-22T09:36:39.450Z,24.80
2023-04-22T09:39:08.227Z,24.64
2023-04-22T09:41:40.369Z,25.14
2023-04-22T09:44:16.086Z,25.25
2023-04-22T09:46:44.980Z,24.71
2023-04-22T09:49:11.856Z,25.37
2023-04-22T09:51:42.526Z,25.61
2023-04-22T09:54:11.577Z,25.53
2023-04-22T09:56:51.370Z,25.69
2023-04-22T09:59:26.268Z,26.24
2023-04-22T10:01:56.695Z,25.62
2023-04-22T10:04:25.606Z,25.56
2023-04-22T10:06:56.913Z,25.98
2023-04-22T10:09:25.595Z,25.86
2023-04-22T10:11:55.275Z,26.02
2023-04-22T10:14:23.184Z,26.10
2023-04-22T10:16:56.731Z,25.47
2023-04-22T10:19:26.061Z,25.14
2023-04-22T10:21:57.547Z,25.68
2023-04-22T10:24:27.999Z,25.69
2023-04-22T10:27:01.391Z,26.27
2023-04-22T10:29:38.654Z,26.18
2023-04-22T10:32:18.024Z,26.07
2023-04-22T10:34:47.792Z,26.30
2023-04-22T10:37:19.115Z,26.96
2023-04-22T10:40:16.653Z,26.60
2023-04-22T10:42:53.081Z,26.98
2023-04-22T10:45:25.534Z,27.14
2023-04-22T10:47:52.546Z,27.44
2023-04-22T10:50:27.711Z,27.02
2023-04-22T10:53:03.194Z,27.39
2023-04-22T10:55:51.870Z,27.00
2023-04-22T10:58:21.431Z,26.89
2023-04-22T11:00:54.228Z,27.42
2023-04-22T11:03:28.593Z,27.33
2023-04-22T11:06:22.497Z,26.88
2023-04-22T11:08:51.197Z,27.07
2023-04-22T11:11:19.605Z,27.13
2023-04-22T11:13:50.842Z,27.02
2023-04-22T11:16:22.343Z,27.42
2023-04-22T11:18:49.602Z,27.70
2023-04-22T11:21:16.851Z,27.51
2023-04-22T11:23:54.230Z,27.29
2023-04-22T11:26:35.308Z,27.34
2023-04-22T11:29:02.294Z,27.59
2023-04-22T11:31:29.267Z,27.86
2023-04-22T11:34:00.260Z,27.93
2023-04-22T11:36:27.699Z,27.97
2023-04-22T11:38:56.330Z,27.90
2023-04-22T11:41:23.755Z,27.91
2023-04-22T11:43:50.583Z,28.68
2023-04-22T11:46:28.114Z,28.03
2023-04-22T11:48:55.085Z,28.06
2023-04-22T11:51:21.901Z,27.97
2023-04-22T11:53:51.582Z,28.19
2023-04-22T11:56:18.433Z,27.64
2023-04-22T11:58:45.269Z,28.22
2023-04-22T12:01:14.069Z,28.63
2023-04-22T12:03:42.380Z,29.03
2023-04-22T12:06:09.632Z,29.43
2023-04-22T12:08:44.419Z,29.55
2023-04-22T12:11:13.497Z,29.38
2023-04-22T12:13:46.341Z,29.74
2023-04-22T12:16:19.513Z,29.48
2023-04-22T12:18:54.805Z,29.47
2023-04-22T12:21:28.156Z,29.15
2023-04-22T12:24:04.750Z,29.13
2023-04-22T12:26:31.840Z,29.02
2023-04-22T12:29:00.282Z,28.54
2023-04-22T12:31:28.309Z,28.22
2023-04-22T12:33:55.895Z,28.04
2023-04-22T12:36:26.423Z,27.28
2023-04-22T12:38:53.318Z,27.38
2023-04-22T12:41:20.178Z,27.21
2023-04-22T12:43:47.666Z,27.33
2023-04-22T12:46:14.711Z,28.34
2023-04-22T12:48:42.768Z,28.94
2023-04-22T12:51:09.667Z,28.82
2023-04-22T12:53:36.550Z,28.82
2023-04-22T12:56:03.505Z,29.71
2023-04-22T12:58:30.390Z,30.26
2023-04-22T13:00:57.238Z,30.41
2023-04-22T13:03:24.387Z,30.79
2023-04-22T13:05:52.294Z,30.63
2023-04-22T13:08:19.136Z,29.87
2023-04-22T13:10:46.254Z,30.13
2023-04-22T13:13:17.570Z,30.56
2023-04-22T13:15:47.605Z,30.76
2023-04-22T13:18:16.749Z,30.56
2023-04-22T13:20:43.848Z,31.47
2023-04-22T13:23:11.379Z,31.12
2023-04-22T13:25:38.271Z,30.75
2023-04-22T13:28:05.082Z,30.98
2023-04-22T13:30:31.887Z,31.48
2023-04-22T13:32:58.814Z,32.18
2023-04-22T13:35:25.669Z,31.51
2023-04-22T13:37:52.648Z,31.49
2023-04-22T13:40:19.611Z,31.89
2023-04-22T13:42:46.558Z,32.60
2023-04-22T13:45:13.511Z,32.20
2023-04-22T13:47:40.541Z,33.55
2023-04-22T13:50:09.105Z,34.64
2023-04-22T13:52:36.662Z,34.90
2023-04-22T13:55:04.377Z,34.04
2023-04-22T13:57:31.565Z,35.11
2023-04-22T13:59:58.416Z,35.40
2023-04-22T14:02:25.299Z,35.64
2023-04-22T14:04:52.336Z,35.58
2023-04-22T14:07:19.385Z,35.68
2023-04-22T14:09:46.207Z,35.87
2023-04-22T14:12:13.356Z,34.58
2023-04-22T14:14:40.241Z,35.08
2023-04-22T14:17:08.430Z,35.22
2023-04-22T14:19:38.982Z,35.76
2023-04-22T14:22:06.655Z,36.17
2023-04-22T14:24:33.592Z,36.00
2023-04-22T14:27:01.730Z,34.95
2023-04-22T14:29:29.834Z,34.94
2023-04-22T14:31:58.320Z,35.52
2023-04-22T14:34:26.865Z,36.12
2023-04-22T14:36:53.854Z,36.59
2023-04-22T14:39:21.436Z,37.57
2023-04-22T14:41:48.548Z,38.29
2023-04-22T14:44:15.761Z,38.77
2023-04-22T14:46:42.627Z,39.36
2023-04-22T14:49:09.451Z,38.63
2023-04-22T14:51:36.614Z,37.30
2023-04-22T14:54:03.550Z,37.76
2023-04-22T14:56:30.527Z,38.47
2023-04-22T14:58:57.391Z,39.37
2023-04-22T15:01:24.298Z,39.88
2023-04-22T15:03:52.130Z,40.16
2023-04-22T15:06:19.190Z,39.94
2023-04-22T15:08:46.270Z,40.07
2023-04-22T15:11:13.249Z,39.84
2023-04-22T15:13:40.312Z,39.52
2023-04-22T15:16:07.301Z,36.78
2023-04-22T15:18:35.508Z,35.52
2023-04-22T15:21:03.371Z,34.73
2023-04-22T15:23:30.216Z,34.69
2023-04-22T15:25:57.069Z,35.99
2023-04-22T15:28:24.461Z,36.47
2023-04-22T15:30:51.361Z,36.32
2023-04-22T15:33:18.211Z,36.09
2023-04-22T15:35:46.724Z,35.78
2023-04-22T15:38:13.995Z,34.90
2023-04-22T15:40:40.888Z,34.01
2023-04-22T15:43:07.688Z,33.26
2023-04-22T15:45:35.697Z,32.37
2023-04-22T15:48:03.090Z,32.34
2023-04-22T15:50:29.915Z,32.06
2023-04-22T15:52:56.756Z,30.55
2023-04-22T15:55:23.629Z,29.33
2023-04-22T15:57:50.499Z,29.46
2023-04-22T16:00:17.484Z,29.70
2023-04-22T16:02:45.136Z,29.55
2023-04-22T16:05:13.902Z,29.56
2023-04-22T16:07:40.772Z,29.55
2023-04-22T16:10:09.037Z,29.14
2023-04-22T16:12:35.886Z,29.21
2023-04-22T16:15:02.862Z,28.93
2023-04-22T16:17:30.122Z,28.89
2023-04-22T16:19:57.070Z,28.77
2023-04-22T16:22:23.985Z,28.57
2023-04-22T16:24:51.281Z,28.67
2023-04-22T16:27:19.128Z,29.29
2023-04-22T16:29:46.137Z,29.02
2023-04-22T16:32:12.971Z,28.63
2023-04-22T16:34:39.836Z,28.47
2023-04-22T16:37:06.811Z,27.98
2023-04-22T16:39:34.186Z,27.61
2023-04-22T16:42:03.006Z,27.33
2023-04-22T16:44:29.946Z,26.91
2023-04-22T16:46:56.853Z,26.62
2023-04-22T16:49:23.741Z,26.28
2023-04-22T16:51:50.642Z,26.00
2023-04-22T16:54:17.460Z,25.73
2023-04-22T16:56:44.315Z,25.44
2023-04-22T16:59:11.315Z,25.30
2023-04-22T17:01:38.231Z,25.12
2023-04-22T17:04:05.133Z,24.82
2023-04-22T17:06:32.487Z,24.67
2023-04-22T17:08:59.895Z,24.53
2023-04-22T17:11:26.780Z,24.30
2023-04-22T17:13:53.708Z,24.18
2023-04-22T17:16:20.933Z,24.20
2023-04-22T17:18:47.971Z,24.23
2023-04-22T17:21:16.602Z,24.16
2023-04-22T17:23:43.480Z,24.10
2023-04-22T17:26:10.336Z,23.83
2023-04-22T17:28:37.179Z,23.74
2023-04-22T17:31:04.185Z,23.62
2023-04-22T17:33:31.244Z,23.60
2023-04-22T17:35:58.169Z,23.54
2023-04-22T17:38:25.019Z,23.51
2023-04-22T17:40:51.885Z,23.23
2023-04-22T17:43:18.753Z,22.83
2023-04-22T17:45:45.659Z,22.46
2023-04-22T17:48:12.518Z,22.34
2023-04-22T17:50:39.390Z,22.36
2023-04-22T17:53:06.303Z,22.31
2023-04-22T17:55:35.303Z,22.13
2023-04-22T17:58:03.691Z,21.81
2023-04-22T18:00:31.838Z,21.53
2023-04-22T18:02:59.144Z,21.32
2023-04-22T18:05:27.242Z,21.40
2023-04-22T18:08:00.793Z,21.46
2023-04-22T18:10:28.400Z,21.34
2023-04-22T18:12:55.427Z,21.12
2023-04-22T18:15:25.625Z,20.98
2023-04-22T18:17:52.587Z,20.80
2023-04-22T18:20:19.857Z,20.63
2023-04-22T18:22:49.324Z,20.74
2023-04-22T18:25:16.435Z,20.76
2023-04-22T18:27:43.854Z,20.80
2023-04-22T18:30:11.202Z,20.78
2023-04-22T18:32:38.272Z,20.79
2023-04-22T18:35:06.065Z,20.63
2023-04-22T18:37:34.590Z,20.47
2023-04-22T18:40:02.308Z,20.39
2023-04-22T18:42:29.142Z,20.30
2023-04-22T18:44:56.119Z,20.09
2023-04-22T18:47:23.071Z,20.15
2023-04-22T18:49:50.022Z,20.16
2023-04-22T18:52:17.201Z,20.14
2023-04-22T18:54:44.508Z,20.09
2023-04-22T18:57:11.507Z,20.05
2023-04-22T18:59:38.701Z,19.93
2023-04-22T19:02:05.998Z,19.70
2023-04-22T19:04:32.978Z,19.45
2023-04-22T19:06:59.908Z,19.45
2023-04-22T19:09:26.846Z,19.25
2023-04-22T19:11:53.892Z,18.96
2023-04-22T19:14:20.777Z,18.84
2023-04-22T19:16:47.583Z,18.75
2023-04-22T19:19:14.755Z,18.72
2023-04-22T19:21:41.637Z,18.76
2023-04-22T19:24:09.654Z,18.72
2023-04-22T19:26:36.772Z,18.77
2023-04-22T19:29:03.789Z,18.69
2023-04-22T19:31:30.968Z,18.63
2023-04-22T19:33:58.248Z,18.61
2023-04-22T19:36:25.323Z,18.57
2023-04-22T19:38:52.091Z,18.68
2023-04-22T19:41:18.907Z,18.63
2023-04-22T19:43:46.164Z,18.78
2023-04-22T19:46:13.178Z,18.81
2023-04-22T19:48:40.906Z,18.83
2023-04-22T19:51:08.019Z,18.90
2023-04-22T19:53:35.489Z,18.90
2023-04-22T19:56:03.013Z,18.71
2023-04-22T19:58:30.625Z,18.71
2023-04-22T20:00:57.668Z,18.61
2023-04-22T20:03:25.085Z,18.43
2023-04-22T20:05:52.661Z,18.60
2023-04-22T20:08:20.086Z,18.69
2023-04-22T20:10:49.603Z,18.79
2023-04-22T20:13:17.564Z,18.88
2023-04-22T20:15:44.740Z,19.00
2023-04-22T20:18:12.093Z,19.04
2023-04-22T20:20:41.441Z,19.13
2023-04-22T20:23:12.760Z,19.19
2023-04-22T20:25:47.135Z,19.29
2023-04-22T20:28:14.553Z,19.11
2023-04-22T20:30:41.773Z,19.22
2023-04-22T20:33:12.305Z,19.26
2023-04-22T20:35:40.964Z,19.39
2023-04-22T20:38:13.036Z,19.53
2023-04-22T20:40:40.563Z,19.65
2023-04-22T20:43:07.729Z,19.67
2023-04-22T20:45:35.116Z,19.67
2023-04-22T20:48:02.410Z,19.71
2023-04-22T20:50:33.444Z,19.77
2023-04-22T20:53:01.151Z,19.82
2023-04-22T20:55:27.963Z,19.84
2023-04-22T20:57:54.976Z,19.73
2023-04-22T21:00:22.307Z,19.57
2023-04-22T21:02:50.288Z,19.50
2023-04-22T21:05:17.868Z,19.50
2023-04-22T21:07:47.522Z,19.34
2023-04-22T21:10:14.781Z,19.43
2023-04-22T21:12:42.046Z,19.52
2023-04-22T21:15:09.823Z,19.56
2023-04-22T21:17:41.302Z,19.58
2023-04-22T21:20:09.370Z,19.52
2023-04-22T21:22:37.721Z,19.45
2023-04-22T21:25:05.928Z,19.33
2023-04-22T21:27:33.036Z,19.15
2023-04-22T21:30:00.700Z,19.11
2023-04-22T21:32:29.400Z,19.09
2023-04-22T21:34:56.792Z,19.05
2023-04-22T21:37:23.972Z,18.91
2023-04-22T21:39:50.762Z,18.80
2023-04-22T21:42:17.569Z,18.80
2023-04-22T21:44:49.551Z,18.70
2023-04-22T21:47:16.702Z,18.65
2023-04-22T21:49:45.829Z,18.55
2023-04-22T21:52:12.604Z,18.47
2023-04-22T21:54:39.637Z,18.36
2023-04-22T21:57:06.658Z,18.32
2023-04-22T21:59:33.513Z,18.26
2023-04-22T22:02:00.357Z,18.19
2023-04-22T22:04:27.250Z,18.02
2023-04-22T22:06:54.161Z,17.97
2023-04-22T22:09:21.328Z,17.86
2023-04-22T22:11:48.220Z,17.79
2023-04-22T22:14:15.070Z,17.72
2023-04-22T22:16:42.402Z,17.72
2023-04-22T22:19:10.436Z,17.60
2023-04-22T22:21:37.822Z,17.63
2023-04-22T22:24:04.753Z,17.48
2023-04-22T22:26:31.592Z,17.49
2023-04-22T22:28:58.443Z,17.49
2023-04-22T22:31:25.372Z,17.43
2023-04-22T22:33:52.292Z,17.42
2023-04-22T22:36:19.688Z,17.36
2023-04-22T22:38:46.688Z,17.29
2023-04-22T22:41:14.040Z,17.07
2023-04-22T22:43:40.877Z,16.80
2023-04-22T22:46:07.851Z,16.91
2023-04-22T22:48:34.962Z,17.02
2023-04-22T22:51:01.747Z,17.02
2023-04-22T22:53:28.636Z,16.94
2023-04-22T22:55:55.492Z,16.97
2023-04-22T22:58:22.297Z,16.84
2023-04-22T23:00:49.253Z,16.91
2023-04-22T23:03:19.164Z,16.84
2023-04-22T23:05:46.726Z,16.81
2023-04-22T23:08:14.651Z,16.92
2023-04-22T23:10:41.541Z,16.93
2023-04-22T23:13:08.363Z,16.92
2023-04-22T23:15:35.265Z,16.93
2023-04-22T23:18:02.534Z,17.00
2023-04-22T23:20:30.598Z,16.80
2023-04-22T23:22:58.065Z,16.90
2023-04-22T23:25:25.302Z,16.88
2023-04-22T23:27:52.822Z,16.83
2023-04-22T23:30:20.403Z,16.77
2023-04-22T23:32:48.824Z,16.89
2023-04-22T23:35:16.084Z,17.02
2023-04-22T23:37:46.937Z,17.00
2023-04-22T23:40:14.051Z,17.03
2023-04-22T23:42:40.934Z,16.92
2023-04-22T23:45:08.695Z,16.93
2023-04-22T23:47:35.792Z,16.79
2023-04-22T23:50:03.497Z,16.72
2023-04-22T23:52:30.390Z,16.72
2023-04-22T23:54:57.914Z,16.79
2023-04-22T23:57:25.300Z,16.80
2023-04-22T23:59:52.389Z,16.76
